createdAt,value
2023-02-04T00:02:12.246Z,6.40
2023-02-04T00:04:39.821Z,5.70
2023-02-04T00:07:07.355Z,8.00
2023-02-04T00:09:34.898Z,7.43
2023-02-04T00:12:02.513Z,6.30
2023-02-04T00:14:30.037Z,6.70
2023-02-04T00:16:57.585Z,8.20
2023-02-04T00:19:25.158Z,7.83
2023-02-04T00:21:52.694Z,5.83
2023-02-04T00:24:21.001Z,7.37
2023-02-04T00:26:48.572Z,6.20
2023-02-04T00:29:16.124Z,6.43
2023-02-04T00:31:43.787Z,6.07
2023-02-04T00:34:11.245Z,5.50
2023-02-04T00:36:38.786Z,6.03
2023-02-04T00:39:06.320Z,5.67
2023-02-04T00:41:34.657Z,6.93
2023-02-04T00:44:02.214Z,7.13
2023-02-04T00:46:29.759Z,5.30
2023-02-04T00:48:57.329Z,6.67
2023-02-04T00:51:24.903Z,4.40
2023-02-04T00:53:52.412Z,5.37
2023-02-04T00:56:20.014Z,5.97
2023-02-04T00:58:47.548Z,4.95
2023-02-04T01:01:15.139Z,5.77
2023-02-04T01:03:42.666Z,4.03
2023-02-04T01:06:10.202Z,4.73
2023-02-04T01:08:38.516Z,5.40
2023-02-04T01:11:06.156Z,5.40
2023-02-04T01:13:34.406Z,5.33
2023-02-04T01:16:02.735Z,4.10
2023-02-04T01:18:30.278Z,3.33
2023-02-04T01:20:57.827Z,3.00
2023-02-04T01:23:25.381Z,2.87
2023-02-04T01:25:52.975Z,2.93
2023-02-04T01:28:20.489Z,2.67
2023-02-04T01:30:48.098Z,4.67
2023-02-04T01:33:16.367Z,3.20
2023-02-04T01:35:43.901Z,3.53
2023-02-04T01:38:11.445Z,3.17
2023-02-04T01:40:39.000Z,3.37
2023-02-04T01:43:06.535Z,3.07
2023-02-04T01:45:34.126Z,4.27
2023-02-04T01:48:01.643Z,2.73
2023-02-04T01:50:29.570Z,2.97
2023-02-04T01:52:56.712Z,3.70
2023-02-04T01:55:24.271Z,3.47
2023-02-04T01:57:51.802Z,3.53
2023-02-04T02:00:26.197Z,3.03
2023-02-04T02:02:53.748Z,2.93
2023-02-04T02:05:24.005Z,4.10
2023-02-04T02:07:52.313Z,4.55
2023-02-04T02:10:20.189Z,2.83
2023-02-04T02:12:47.715Z,2.30
2023-02-04T02:15:15.240Z,3.97
2023-02-04T02:17:42.837Z,3.60
2023-02-04T02:20:13.318Z,3.90
2023-02-04T02:23:01.800Z,2.90
2023-02-04T02:25:30.090Z,2.53
2023-02-04T02:27:57.698Z,3.73
2023-02-04T02:30:25.209Z,2.50
2023-02-04T02:32:52.730Z,4.33
2023-02-04T02:35:20.267Z,3.73
2023-02-04T02:37:47.842Z,2.73
2023-02-04T02:40:15.366Z,3.90
2023-02-04T02:42:42.912Z,3.90
2023-02-04T02:45:13.005Z,3.37
2023-02-04T02:47:41.288Z,3.67
2023-02-04T02:50:09.588Z,3.67
2023-02-04T02:52:37.161Z,3.47
2023-02-04T02:55:04.690Z,3.70
2023-02-04T02:57:32.211Z,2.87
2023-02-04T02:59:59.756Z,3.73
2023-02-04T03:02:27.330Z,4.83
2023-02-04T03:04:54.815Z,3.07
2023-02-04T03:07:23.510Z,3.30
2023-02-04T03:09:51.024Z,3.90
2023-02-04T03:12:18.559Z,3.30
2023-02-04T03:14:46.114Z,4.40
2023-02-04T03:17:13.638Z,3.70
2023-02-04T03:19:41.163Z,3.60
2023-02-04T03:22:08.736Z,5.07
2023-02-04T03:24:36.304Z,3.93
2023-02-04T03:27:04.613Z,4.28
2023-02-04T03:29:32.176Z,4.77
2023-02-04T03:31:59.833Z,3.30
2023-02-04T03:34:28.015Z,3.13
2023-02-04T03:36:55.562Z,3.83
2023-02-04T03:39:23.094Z,3.07
2023-02-04T03:41:51.404Z,3.27
2023-02-04T03:44:18.957Z,3.17
2023-02-04T03:46:46.483Z,6.33
2023-02-04T03:49:14.795Z,3.90
2023-02-04T03:51:42.361Z,4.57
2023-02-04T03:54:09.889Z,5.40
2023-02-04T03:56:38.189Z,4.83
2023-02-04T03:59:05.744Z,5.67
2023-02-04T04:01:33.303Z,5.87
2023-02-04T04:04:01.576Z,5.57
2023-02-04T04:06:29.139Z,4.57
2023-02-04T04:08:56.674Z,3.90
2023-02-04T04:11:24.196Z,3.80
2023-02-04T04:13:51.750Z,4.90
2023-02-04T04:16:19.286Z,4.85
2023-02-04T04:18:46.800Z,4.13
2023-02-04T04:21:15.408Z,3.47
2023-02-04T04:23:42.944Z,2.93
2023-02-04T04:26:11.246Z,3.37
2023-02-04T04:28:38.826Z,3.97
2023-02-04T04:31:06.440Z,2.27
2023-02-04T04:33:34.630Z,2.00
2023-02-04T04:36:03.012Z,1.50
2023-02-04T04:38:30.551Z,1.47
2023-02-04T04:40:58.078Z,1.10
2023-02-04T04:43:25.615Z,1.23
2023-02-04T04:45:53.149Z,1.40
2023-02-04T04:48:20.676Z,1.70
2023-02-04T04:50:49.007Z,2.90
2023-02-04T04:53:16.540Z,0.80
2023-02-04T04:55:44.077Z,0.70
2023-02-04T04:58:12.409Z,0.70
2023-02-04T05:00:39.996Z,0.40
2023-02-04T05:03:07.459Z,0.60
2023-02-04T05:05:35.014Z,0.40
2023-02-04T05:08:02.551Z,0.30
2023-02-04T05:10:30.510Z,0.60
2023-02-04T05:12:57.646Z,0.40
2023-02-04T05:15:25.186Z,0.30
2023-02-04T05:17:52.739Z,0.70
2023-02-04T05:20:21.101Z,0.43
2023-02-04T05:22:48.617Z,0.50
2023-02-04T05:25:16.144Z,0.70
2023-02-04T05:27:43.725Z,0.67
2023-02-04T05:30:11.389Z,0.87
2023-02-04T05:32:38.923Z,0.80
2023-02-04T05:35:06.593Z,0.98
2023-02-04T05:37:34.113Z,1.00
2023-02-04T05:40:01.677Z,0.80
2023-02-04T05:42:29.218Z,0.93
2023-02-04T05:44:56.753Z,1.00
2023-02-04T05:47:24.288Z,2.22
2023-02-04T05:49:51.832Z,1.50
2023-02-04T05:52:19.356Z,2.20
2023-02-04T05:54:46.882Z,1.97
2023-02-04T05:57:14.468Z,0.60
2023-02-04T05:59:42.001Z,0.90
2023-02-04T06:02:09.534Z,0.43
2023-02-04T06:04:37.160Z,0.60
2023-02-04T06:07:04.637Z,2.60
2023-02-04T06:09:32.947Z,0.80
2023-02-04T06:12:00.567Z,0.83
2023-02-04T06:14:28.054Z,0.50
2023-02-04T06:16:55.635Z,0.70
2023-02-04T06:19:23.911Z,1.97
2023-02-04T06:21:51.446Z,0.70
2023-02-04T06:24:18.982Z,1.37
2023-02-04T06:26:47.293Z,3.93
2023-02-04T06:29:14.810Z,0.40
2023-02-04T06:31:43.237Z,0.50
2023-02-04T06:34:11.452Z,2.10
2023-02-04T06:36:38.958Z,18.20
2023-02-04T06:39:06.503Z,1.23
2023-02-04T06:41:34.077Z,0.60
2023-02-04T06:44:01.613Z,0.93
2023-02-04T06:46:29.205Z,1.13
2023-02-04T06:48:57.872Z,2.00
2023-02-04T06:51:25.445Z,1.27
2023-02-04T06:53:53.708Z,2.27
2023-02-04T06:56:21.273Z,0.60
2023-02-04T06:58:48.790Z,2.10
2023-02-04T07:01:17.172Z,1.33
2023-02-04T07:03:44.658Z,2.53
2023-02-04T07:06:12.193Z,0.70
2023-02-04T07:08:40.496Z,1.10
2023-02-04T07:11:08.660Z,0.53
2023-02-04T07:13:36.195Z,0.70
2023-02-04T07:16:03.793Z,1.63
2023-02-04T07:18:31.304Z,1.40
2023-02-04T07:20:58.853Z,1.03
2023-02-04T07:23:26.376Z,0.83
2023-02-04T07:25:54.022Z,1.53
2023-02-04T07:28:21.561Z,1.00
2023-02-04T07:30:49.984Z,0.50
2023-02-04T07:33:17.432Z,0.70
2023-02-04T07:35:44.965Z,1.73
2023-02-04T07:38:12.488Z,0.90
2023-02-04T07:40:40.092Z,1.87
2023-02-04T07:43:08.372Z,1.73
2023-02-04T07:45:35.902Z,1.73
2023-02-04T07:48:04.239Z,1.00
2023-02-04T07:50:32.131Z,1.60
2023-02-04T07:52:59.302Z,1.03
2023-02-04T07:55:26.877Z,2.33
2023-02-04T07:57:54.418Z,2.53
2023-02-04T08:00:22.701Z,1.87
2023-02-04T08:02:50.595Z,3.47
2023-02-04T08:05:18.104Z,2.85
2023-02-04T08:07:46.387Z,4.03
2023-02-04T08:10:14.737Z,2.57
2023-02-04T08:12:42.257Z,2.13
2023-02-04T08:15:09.861Z,4.50
2023-02-04T08:17:37.440Z,2.50
2023-02-04T08:20:05.726Z,1.70
2023-02-04T08:22:33.997Z,2.10
2023-02-04T08:25:01.567Z,4.47
2023-02-04T08:27:29.087Z,3.60
2023-02-04T08:29:56.618Z,2.80
2023-02-04T08:32:24.209Z,5.40
2023-02-04T08:34:51.747Z,2.87
2023-02-04T08:37:19.290Z,5.40
2023-02-04T08:39:47.130Z,4.67
2023-02-04T08:42:14.664Z,4.43
2023-02-04T08:44:42.959Z,6.30
2023-02-04T08:47:10.536Z,3.20
2023-02-04T08:49:38.060Z,6.87
2023-02-04T08:52:06.360Z,8.07
2023-02-04T08:54:33.944Z,6.73
2023-02-04T08:57:01.472Z,8.63
2023-02-04T08:59:29.775Z,3.60
2023-02-04T09:01:57.371Z,11.67
2023-02-04T09:04:24.878Z,5.47
2023-02-04T09:06:53.201Z,7.30
2023-02-04T09:09:22.795Z,7.43
2023-02-04T09:11:48.315Z,9.27
2023-02-04T09:14:15.838Z,11.68
2023-02-04T09:16:43.826Z,8.23
2023-02-04T09:19:11.255Z,11.80
2023-02-04T09:21:39.570Z,12.03
2023-02-04T09:24:07.143Z,9.03
2023-02-04T09:26:34.699Z,13.00
2023-02-04T09:29:02.233Z,6.50
2023-02-04T09:31:31.042Z,10.93
2023-02-04T09:33:58.734Z,11.50
2023-02-04T09:36:26.282Z,9.17
2023-02-04T09:38:53.842Z,10.27
2023-02-04T09:41:21.377Z,11.40
2023-02-04T09:43:48.939Z,7.93
2023-02-04T09:46:25.182Z,8.10
2023-02-04T09:48:52.720Z,10.80
2023-02-04T09:51:20.252Z,8.33
2023-02-04T09:53:47.836Z,8.77
2023-02-04T09:56:16.139Z,11.27
2023-02-04T09:58:43.658Z,12.80
2023-02-04T10:01:12.347Z,15.93
2023-02-04T10:03:39.830Z,7.90
2023-02-04T10:06:08.108Z,5.13
2023-02-04T10:08:35.973Z,11.50
2023-02-04T10:11:03.508Z,7.77
2023-02-04T10:13:31.818Z,9.10
2023-02-04T10:15:59.398Z,11.33
2023-02-04T10:18:26.960Z,7.10
2023-02-04T10:21:15.912Z,9.52
2023-02-04T10:23:43.460Z,6.23
2023-02-04T10:26:10.970Z,7.97
2023-02-04T10:28:39.609Z,11.43
2023-02-04T10:31:07.225Z,15.13
2023-02-04T10:33:34.697Z,9.40
2023-02-04T10:36:02.271Z,7.73
2023-02-04T10:38:29.873Z,9.95
2023-02-04T10:41:03.324Z,11.00
2023-02-04T10:43:32.736Z,10.57
2023-02-04T10:46:02.742Z,7.27
2023-02-04T10:48:30.282Z,13.13
2023-02-04T10:50:57.842Z,9.97
2023-02-04T10:53:43.317Z,11.30
2023-02-04T10:56:11.671Z,12.97
2023-02-04T10:58:39.218Z,9.83
2023-02-04T11:01:06.796Z,7.90
2023-02-04T11:03:34.420Z,8.57
2023-02-04T11:06:01.899Z,10.97
2023-02-04T11:08:35.421Z,9.35
2023-02-04T11:11:12.626Z,10.57
2023-02-04T11:13:42.895Z,5.07
2023-02-04T11:16:19.372Z,6.93
2023-02-04T11:18:52.765Z,12.18
2023-02-04T11:21:28.966Z,11.40
2023-02-04T11:24:12.591Z,10.40
2023-02-04T11:26:43.592Z,8.23
2023-02-04T11:29:17.046Z,7.53
2023-02-04T11:31:48.487Z,12.70
2023-02-04T11:34:15.964Z,9.63
2023-02-04T11:36:59.121Z,6.23
2023-02-04T11:39:30.157Z,9.27
2023-02-04T11:41:58.429Z,11.43
2023-02-04T11:44:26.044Z,11.02
2023-02-04T11:46:53.562Z,10.67
2023-02-04T11:49:21.102Z,10.82
2023-02-04T11:51:48.682Z,8.38
2023-02-04T11:54:16.235Z,7.37
2023-02-04T11:56:43.788Z,10.40
2023-02-04T11:59:11.372Z,8.93
2023-02-04T12:01:38.919Z,9.47
2023-02-04T12:04:06.522Z,8.15
2023-02-04T12:06:34.035Z,11.83
2023-02-04T12:09:16.454Z,9.23
2023-02-04T12:11:53.092Z,8.20
2023-02-04T12:14:20.635Z,8.30
2023-02-04T12:16:53.580Z,5.40
2023-02-04T12:19:21.164Z,6.63
2023-02-04T12:21:49.464Z,9.82
2023-02-04T12:24:16.996Z,9.97
2023-02-04T12:26:44.583Z,6.77
2023-02-04T12:29:12.119Z,6.83
2023-02-04T12:31:40.552Z,8.40
2023-02-04T12:34:08.039Z,7.75
2023-02-04T12:36:35.581Z,9.47
2023-02-04T12:39:03.137Z,6.50
2023-02-04T12:41:31.512Z,8.15
2023-02-04T12:43:59.016Z,9.85
2023-02-04T12:46:26.590Z,8.23
2023-02-04T12:48:54.139Z,7.30
2023-02-04T12:51:21.675Z,9.03
2023-02-04T12:53:49.219Z,6.30
2023-02-04T12:56:16.788Z,9.20
2023-02-04T12:58:45.099Z,8.50
2023-02-04T13:01:12.718Z,7.60
2023-02-04T13:03:40.229Z,6.93
2023-02-04T13:06:07.791Z,7.47
2023-02-04T13:08:35.304Z,10.00
2023-02-04T13:11:03.677Z,10.67
2023-02-04T13:13:31.209Z,11.33
2023-02-04T13:15:58.780Z,7.67
2023-02-04T13:18:26.342Z,11.73
2023-02-04T13:20:53.892Z,8.60
2023-02-04T13:23:21.437Z,8.07
2023-02-04T13:25:49.817Z,8.95
2023-02-04T13:28:17.413Z,9.65
2023-02-04T13:30:44.944Z,9.63
2023-02-04T13:33:12.765Z,9.23
2023-02-04T13:35:40.303Z,7.37
2023-02-04T13:38:08.630Z,6.20
2023-02-04T13:40:36.704Z,9.33
2023-02-04T13:43:04.252Z,6.50
2023-02-04T13:45:32.206Z,9.60
2023-02-04T13:47:59.366Z,6.83
2023-02-04T13:50:26.912Z,10.02
2023-02-04T13:52:54.447Z,7.83
2023-02-04T13:55:22.813Z,8.53
2023-02-04T13:57:50.337Z,6.67
2023-02-04T14:00:17.893Z,9.33
2023-02-04T14:02:45.469Z,10.67
2023-02-04T14:05:13.012Z,6.23
2023-02-04T14:07:40.546Z,9.27
2023-02-04T14:10:08.515Z,7.87
2023-02-04T14:12:35.957Z,3.63
2023-02-04T14:15:04.273Z,6.45
2023-02-04T14:17:31.856Z,11.80
2023-02-04T14:19:59.389Z,8.67
2023-02-04T14:22:26.935Z,9.00
2023-02-04T14:24:54.523Z,6.70
2023-02-04T14:27:22.067Z,8.33
2023-02-04T14:29:49.578Z,8.38
2023-02-04T14:32:17.168Z,7.13
2023-02-04T14:34:44.697Z,7.30
2023-02-04T14:37:13.009Z,9.10
2023-02-04T14:39:40.596Z,8.30
2023-02-04T14:42:08.158Z,7.23
2023-02-04T14:44:35.688Z,8.25
2023-02-04T14:47:03.290Z,9.27
2023-02-04T14:49:30.836Z,7.90
2023-02-04T14:51:58.940Z,10.90
2023-02-04T14:54:27.302Z,13.82
2023-02-04T14:56:54.857Z,6.70
2023-02-04T14:59:22.378Z,7.10
2023-02-04T15:01:49.970Z,8.63
2023-02-04T15:04:17.505Z,8.77
2023-02-04T15:06:45.039Z,7.17
2023-02-04T15:09:12.633Z,8.43
2023-02-04T15:11:40.167Z,8.73
2023-02-04T15:14:07.728Z,7.37
2023-02-04T15:16:35.378Z,7.27
2023-02-04T15:19:02.834Z,7.30
2023-02-04T15:21:30.410Z,9.47
2023-02-04T15:23:57.977Z,8.73
2023-02-04T15:26:25.496Z,6.57
2023-02-04T15:28:53.042Z,7.93
2023-02-04T15:31:21.454Z,6.30
2023-02-04T15:33:49.713Z,7.57
2023-02-04T15:36:17.252Z,7.20
2023-02-04T15:38:45.869Z,9.23
2023-02-04T15:41:13.403Z,5.53
2023-02-04T15:43:41.721Z,5.63
2023-02-04T15:46:09.336Z,6.50
2023-02-04T15:48:36.847Z,9.20
2023-02-04T15:51:04.382Z,9.80
2023-02-04T15:53:32.244Z,6.83
2023-02-04T15:55:59.769Z,6.17
2023-02-04T15:58:28.081Z,10.27
2023-02-04T16:00:55.670Z,6.60
2023-02-04T16:03:23.206Z,10.50
2023-02-04T16:05:50.732Z,9.30
2023-02-04T16:08:18.307Z,5.63
2023-02-04T16:10:45.857Z,10.10
2023-02-04T16:13:14.136Z,7.67
2023-02-04T16:15:42.546Z,4.27
2023-02-04T16:18:10.838Z,9.10
2023-02-04T16:20:38.493Z,8.07
2023-02-04T16:23:06.057Z,10.00
2023-02-04T16:25:33.932Z,9.93
2023-02-04T16:28:01.137Z,7.60
2023-02-04T16:30:28.748Z,4.87
2023-02-04T16:32:56.981Z,11.97
2023-02-04T16:35:24.523Z,11.87
2023-02-04T16:37:52.145Z,12.37
2023-02-04T16:40:19.641Z,14.33
2023-02-04T16:42:47.185Z,13.00
2023-02-04T16:45:14.757Z,13.23
2023-02-04T16:47:43.040Z,11.87
2023-02-04T16:50:10.662Z,9.73
2023-02-04T16:52:38.270Z,8.67
2023-02-04T16:55:05.813Z,7.87
2023-02-04T16:57:34.103Z,7.53
2023-02-04T17:00:01.792Z,9.10
2023-02-04T17:02:29.264Z,6.50
2023-02-04T17:04:56.757Z,7.93
2023-02-04T17:07:25.092Z,8.53
2023-02-04T17:09:52.625Z,7.77
2023-02-04T17:12:20.149Z,5.97
2023-02-04T17:14:48.492Z,9.20
2023-02-04T17:17:16.018Z,4.40
2023-02-04T17:19:43.562Z,10.17
2023-02-04T17:22:11.151Z,8.40
2023-02-04T17:24:38.680Z,9.47
2023-02-04T17:27:06.226Z,7.87
2023-02-04T17:29:34.558Z,10.20
2023-02-04T17:32:02.103Z,20.63
2023-02-04T17:34:29.647Z,12.13
2023-02-04T17:36:57.241Z,10.00
2023-02-04T17:39:24.768Z,11.45
2023-02-04T17:41:52.318Z,9.63
2023-02-04T17:44:20.435Z,11.90
2023-02-04T17:46:48.062Z,13.83
2023-02-04T17:49:16.126Z,13.00
2023-02-04T17:51:43.064Z,14.63
2023-02-04T17:54:10.589Z,13.37
2023-02-04T17:56:38.141Z,10.07
2023-02-04T17:59:05.718Z,10.70
2023-02-04T18:01:34.153Z,16.42
2023-02-04T18:04:02.302Z,10.53
2023-02-04T18:06:29.868Z,12.00
2023-02-04T18:08:57.503Z,12.93
2023-02-04T18:11:27.440Z,15.33
2023-02-04T18:13:52.584Z,14.60
2023-02-04T18:16:22.603Z,12.00
2023-02-04T18:18:50.133Z,14.30
2023-02-04T18:21:26.398Z,12.17
2023-02-04T18:24:01.368Z,15.83
2023-02-04T18:26:28.499Z,11.53
2023-02-04T18:28:56.790Z,11.80
2023-02-04T18:31:45.361Z,18.07
2023-02-04T18:34:18.827Z,11.70
2023-02-04T18:36:46.379Z,14.27
2023-02-04T18:39:19.936Z,18.73
2023-02-04T18:41:50.673Z,16.53
2023-02-04T18:44:23.660Z,21.33
2023-02-04T18:46:51.194Z,20.83
2023-02-04T18:49:28.610Z,18.63
2023-02-04T18:51:56.101Z,21.27
2023-02-04T18:54:26.434Z,24.02
2023-02-04T18:56:54.368Z,45.22
2023-02-04T18:59:21.893Z,36.90
2023-02-04T19:01:50.333Z,46.47
2023-02-04T19:04:23.548Z,46.33
2023-02-04T19:06:51.064Z,27.33
2023-02-04T19:09:27.116Z,26.27
2023-02-04T19:11:54.667Z,17.80
2023-02-04T19:14:34.109Z,18.23
2023-02-04T19:17:14.478Z,17.37
2023-02-04T19:19:44.388Z,10.57
2023-02-04T19:22:14.778Z,9.03
2023-02-04T19:24:44.202Z,60.30
2023-02-04T19:27:26.993Z,66.83
2023-02-04T19:29:55.305Z,40.63
2023-02-04T19:32:31.472Z,24.70
2023-02-04T19:34:59.030Z,15.37
2023-02-04T19:37:29.036Z,14.10
2023-02-04T19:39:56.620Z,18.47
2023-02-04T19:42:33.331Z,66.87
2023-02-04T19:45:03.558Z,123.93
2023-02-04T19:47:38.008Z,73.70
2023-02-04T19:50:29.505Z,42.87
2023-02-04T19:53:00.568Z,32.60
2023-02-04T19:55:37.310Z,18.47
2023-02-04T19:58:16.448Z,35.37
2023-02-04T20:00:52.601Z,70.77
2023-02-04T20:03:35.192Z,81.40
2023-02-04T20:07:22.166Z,82.93
2023-02-04T20:10:07.689Z,41.10
2023-02-04T20:12:35.247Z,34.10
2023-02-04T20:15:02.775Z,33.07
2023-02-04T20:17:37.204Z,21.90
2023-02-04T20:20:19.446Z,21.57
2023-02-04T20:22:47.009Z,17.03
2023-02-04T20:25:20.806Z,14.57
2023-02-04T20:27:57.128Z,17.87
2023-02-04T20:30:24.765Z,19.83
2023-02-04T20:32:52.124Z,18.58
2023-02-04T20:35:19.710Z,14.83
2023-02-04T20:37:49.872Z,17.87
2023-02-04T20:40:20.066Z,15.63
2023-02-04T20:42:47.645Z,11.67
2023-02-04T20:45:18.105Z,16.87
2023-02-04T20:47:45.613Z,14.73
2023-02-04T20:50:16.161Z,16.97
2023-02-04T20:52:43.713Z,18.23
2023-02-04T20:55:17.237Z,18.37
2023-02-04T20:57:45.612Z,14.80
2023-02-04T21:00:16.006Z,20.47
2023-02-04T21:02:43.530Z,15.87
2023-02-04T21:05:19.743Z,17.00
2023-02-04T21:07:47.278Z,15.37
2023-02-04T21:10:14.813Z,17.67
2023-02-04T21:12:42.386Z,15.40
2023-02-04T21:15:09.942Z,16.67
2023-02-04T21:17:37.490Z,14.93
2023-02-04T21:20:05.353Z,14.00
2023-02-04T21:22:32.880Z,13.87
2023-02-04T21:25:01.182Z,16.43
2023-02-04T21:27:28.756Z,12.93
2023-02-04T21:29:56.280Z,13.80
2023-02-04T21:32:24.585Z,13.20
2023-02-04T21:34:52.164Z,14.83
2023-02-04T21:37:19.692Z,19.27
2023-02-04T21:39:47.987Z,21.10
2023-02-04T21:42:15.561Z,16.67
2023-02-04T21:44:43.079Z,14.23
2023-02-04T21:47:11.403Z,17.73
2023-02-04T21:49:42.664Z,15.33
2023-02-04T21:52:06.786Z,14.53
2023-02-04T21:54:35.075Z,14.23
2023-02-04T21:57:02.649Z,15.27
2023-02-04T21:59:32.911Z,17.80
2023-02-04T22:02:00.631Z,13.90
2023-02-04T22:04:28.061Z,18.00
2023-02-04T22:06:56.364Z,16.57
2023-02-04T22:09:23.890Z,19.10
2023-02-04T22:11:52.241Z,12.70
2023-02-04T22:14:19.774Z,14.30
2023-02-04T22:16:47.320Z,16.43
2023-02-04T22:19:14.893Z,14.97
2023-02-04T22:21:42.439Z,14.43
2023-02-04T22:24:09.964Z,22.73
2023-02-04T22:26:38.289Z,19.13
2023-02-04T22:29:05.820Z,25.60
2023-02-04T22:31:33.374Z,47.50
2023-02-04T22:34:02.025Z,31.47
2023-02-04T22:36:29.552Z,23.13
2023-02-04T22:38:57.123Z,17.53
2023-02-04T22:41:24.681Z,13.00
2023-02-04T22:43:52.223Z,14.13
2023-02-04T22:46:19.759Z,15.23
2023-02-04T22:48:48.101Z,16.70
2023-02-04T22:51:15.631Z,15.97
2023-02-04T22:53:43.162Z,21.20
2023-02-04T22:56:11.556Z,13.50
2023-02-04T22:58:39.098Z,14.97
2023-02-04T23:01:06.683Z,12.57
2023-02-04T23:03:34.955Z,14.47
2023-02-04T23:06:02.486Z,16.27
2023-02-04T23:08:30.009Z,15.77
2023-02-04T23:10:58.350Z,14.80
2023-02-04T23:13:26.010Z,16.90
2023-02-04T23:15:53.427Z,16.50
2023-02-04T23:18:21.099Z,13.23
2023-02-04T23:20:48.636Z,13.70
2023-02-04T23:23:19.693Z,13.40
2023-02-04T23:25:48.591Z,13.00
2023-02-04T23:28:16.112Z,13.13
2023-02-04T23:30:43.661Z,17.77
2023-02-04T23:33:11.228Z,15.50
2023-02-04T23:35:39.556Z,17.17
2023-02-04T23:38:07.423Z,14.00
2023-02-04T23:40:34.969Z,13.77
2023-02-04T23:43:02.495Z,16.00
2023-02-04T23:45:30.927Z,18.50
2023-02-04T23:47:58.688Z,12.33
2023-02-04T23:50:26.223Z,16.27
2023-02-04T23:52:53.757Z,13.77
2023-02-04T23:55:21.332Z,13.97
2023-02-04T23:57:48.865Z,10.43
